Time;durP1;ratioP1;P1;durP2;ratioP2;P2;SDS_P1;SDS_P2;PMS_P1;PMS_P2;Temp;Humidity;BMP_temperature;BMP_pressure;BME280_temperature;BME280_humidity;BME280_pressure;Samples;Min_cycle;Max_cycle;Signal;HPM_P1;HPM_P2
2024/03/06 00:00:52;;;;;;;18.20;16.30;;;7.90;99.90;;;;;;2069951;28;20455;-68
2024/03/06 00:01:52;;;;;;;17.33;15.15;;;7.90;99.90;;;;;;2071277;28;20494;-67
2024/03/06 00:02:53;;;;;;;17.67;15.45;;;7.90;99.90;;;;;;2068978;28;20026;-68
2024/03/06 00:03:54;;;;;;;22.65;18.00;;;7.90;99.90;;;;;;2067657;28;20030;-67
2024/03/06 00:04:54;;;;;;;18.70;15.80;;;7.90;99.90;;;;;;2069585;28;20021;-68
2024/03/06 00:05:55;;;;;;;19.88;17.17;;;7.90;99.90;;;;;;2069187;28;20057;-68
2024/03/06 00:06:57;;;;;;;20.17;16.95;;;7.90;99.90;;;;;;2069014;28;20046;-67
2024/03/06 00:07:58;;;;;;;20.25;17.60;;;7.90;99.90;;;;;;2069820;28;20426;-66
2024/03/06 00:09:02;;;;;;;20.10;17.73;;;7.90;99.90;;;;;;2069396;28;20033;-68
2024/03/06 00:10:04;;;;;;;18.08;15.88;;;7.90;99.90;;;;;;2071445;28;20034;-67
2024/03/06 00:11:05;;;;;;;20.70;16.83;;;7.90;99.90;;;;;;2069592;28;20236;-68
2024/03/06 00:12:06;;;;;;;18.08;15.32;;;7.90;99.90;;;;;;2069841;28;20077;-67
2024/03/06 00:13:09;;;;;;;18.40;15.98;;;7.90;99.90;;;;;;2062183;28;20037;-67
2024/03/06 00:14:12;;;;;;;21.40;18.30;;;7.90;99.90;;;;;;2053013;28;20898;-68
2024/03/06 00:15:13;;;;;;;21.65;18.00;;;7.90;99.90;;;;;;2062444;28;20090;-68
2024/03/06 00:16:14;;;;;;;17.90;15.90;;;7.80;99.90;;;;;;2068388;28;20061;-68
2024/03/06 00:17:14;;;;;;;25.65;19.17;;;7.80;99.90;;;;;;2065378;28;20058;-67
2024/03/06 00:18:15;;;;;;;21.50;18.02;;;7.80;99.90;;;;;;2064940;28;20034;-67
2024/03/06 00:19:20;;;;;;;19.52;17.30;;;7.80;99.90;;;;;;2070410;28;20056;-68
2024/03/06 00:20:21;;;;;;;19.92;16.80;;;7.80;99.90;;;;;;2070562;28;20078;-68
2024/03/06 00:21:22;;;;;;;20.92;18.45;;;7.80;99.90;;;;;;2071693;28;20093;-67
2024/03/06 00:22:30;;;;;;;22.75;18.60;;;7.80;99.90;;;;;;2071080;28;20080;-67
2024/03/06 00:23:30;;;;;;;22.65;18.42;;;7.80;99.90;;;;;;2068704;28;20076;-67
2024/03/06 00:24:32;;;;;;;22.48;18.80;;;7.80;99.90;;;;;;2071103;28;20077;-67
2024/03/06 00:25:34;;;;;;;19.38;16.65;;;7.80;99.90;;;;;;2067569;28;20051;-68
2024/03/06 00:26:35;;;;;;;18.58;15.63;;;7.80;99.90;;;;;;2067649;28;20029;-67
2024/03/06 00:27:35;;;;;;;21.60;17.42;;;7.80;99.90;;;;;;2071277;28;20033;-67
2024/03/06 00:28:36;;;;;;;18.25;16.20;;;7.80;99.90;;;;;;2069714;28;20038;-67
2024/03/06 00:29:39;;;;;;;17.83;15.40;;;7.80;99.90;;;;;;2070743;28;20479;-67
2024/03/06 00:30:40;;;;;;;17.98;14.45;;;7.80;99.90;;;;;;2071655;28;20033;-67
2024/03/06 00:31:45;;;;;;;20.83;16.17;;;7.80;99.90;;;;;;2072571;28;20033;-67
2024/03/06 00:32:45;;;;;;;24.15;19.90;;;7.80;99.90;;;;;;2060690;28;20113;-68
2024/03/06 00:33:46;;;;;;;22.50;18.65;;;7.80;99.90;;;;;;2063700;28;20063;-67
2024/03/06 00:34:47;;;;;;;22.90;18.27;;;7.80;99.90;;;;;;2070080;28;20037;-67
2024/03/06 00:35:47;;;;;;;19.35;17.23;;;7.80;99.90;;;;;;2070666;28;20100;-68
2024/03/06 00:36:49;;;;;;;22.23;19.20;;;7.80;99.90;;;;;;2069592;28;20355;-68
2024/03/06 00:37:51;;;;;;;22.05;17.70;;;7.80;99.90;;;;;;2071521;28;20025;-67
2024/03/06 00:38:52;;;;;;;20.38;17.73;;;7.80;99.90;;;;;;2070566;28;20141;-67
2024/03/06 00:39:52;;;;;;;24.25;20.15;;;7.80;99.90;;;;;;2069406;28;20486;-67
2024/03/06 00:40:53;;;;;;;22.67;19.83;;;7.80;99.90;;;;;;2070544;28;20026;-67
2024/03/06 00:41:54;;;;;;;20.10;18.00;;;7.70;99.90;;;;;;2069519;28;20054;-67
2024/03/06 00:43:03;;;;;;;24.05;19.88;;;7.80;99.90;;;;;;2061647;28;20034;-67
2024/03/06 00:44:04;;;;;;;17.52;15.52;;;7.80;99.90;;;;;;2065399;28;20034;-68
2024/03/06 00:45:04;;;;;;;22.45;16.95;;;7.80;99.90;;;;;;2065449;28;20030;-68
2024/03/06 00:46:07;;;;;;;22.13;17.63;;;7.80;99.90;;;;;;2066592;28;20027;-67
2024/03/06 00:47:08;;;;;;;23.27;19.42;;;7.70;99.90;;;;;;2070978;28;20102;-67
2024/03/06 00:48:08;;;;;;;20.63;17.35;;;7.80;99.90;;;;;;2063614;28;20040;-67
2024/03/06 00:49:09;;;;;;;20.40;17.02;;;7.80;99.90;;;;;;2062704;28;20045;-67
2024/03/06 00:50:10;;;;;;;19.38;15.95;;;7.80;99.90;;;;;;2071078;28;20026;-67
2024/03/06 00:51:10;;;;;;;21.52;15.75;;;7.70;99.90;;;;;;2070638;28;20033;-68
2024/03/06 00:52:11;;;;;;;21.33;16.55;;;7.70;99.90;;;;;;2069398;28;20069;-67
2024/03/06 00:53:14;;;;;;;18.42;16.48;;;7.70;99.90;;;;;;2069692;28;20038;-67
2024/03/06 00:54:14;;;;;;;19.42;17.33;;;7.70;99.90;;;;;;2072969;28;20431;-67
2024/03/06 00:55:15;;;;;;;20.20;17.75;;;7.70;99.90;;;;;;2070292;28;20391;-67
2024/03/06 00:56:16;;;;;;;20.75;16.63;;;7.70;99.90;;;;;;2070905;28;20039;-68
2024/03/06 00:57:16;;;;;;;17.20;14.27;;;7.70;99.90;;;;;;2070114;28;20032;-67
2024/03/06 00:58:17;;;;;;;22.52;18.23;;;7.70;99.90;;;;;;2071854;28;20109;-68
2024/03/06 00:59:18;;;;;;;22.45;19.17;;;7.70;99.90;;;;;;2068879;28;20026;-67
2024/03/06 01:00:19;;;;;;;19.90;17.70;;;7.70;99.90;;;;;;2064543;28;20026;-67
2024/03/06 01:01:20;;;;;;;23.63;19.48;;;7.70;99.90;;;;;;2065436;28;20018;-67
2024/03/06 01:02:21;;;;;;;19.15;16.67;;;7.70;99.90;;;;;;2072107;28;20061;-68
2024/03/06 01:03:24;;;;;;;23.75;20.13;;;7.70;99.90;;;;;;2069934;28;20031;-68
2024/03/06 01:04:25;;;;;;;25.67;20.67;;;7.70;99.90;;;;;;2064358;28;20018;-67
2024/03/06 01:05:26;;;;;;;25.38;21.95;;;7.70;99.90;;;;;;2063119;28;20026;-67
2024/03/06 01:06:26;;;;;;;25.67;21.75;;;7.70;99.90;;;;;;2075390;28;20421;-67
2024/03/06 01:07:27;;;;;;;21.85;18.85;;;7.70;99.90;;;;;;2069519;28;20059;-67
2024/03/06 01:08:27;;;;;;;20.70;16.88;;;7.70;99.90;;;;;;2063904;28;20479;-67
2024/03/06 01:09:29;;;;;;;21.33;16.70;;;7.60;99.90;;;;;;2064641;28;20137;-68
2024/03/06 01:10:29;;;;;;;24.67;18.40;;;7.70;99.90;;;;;;2061761;28;20053;-67
2024/03/06 01:11:32;;;;;;;19.20;15.98;;;7.60;99.90;;;;;;2062644;28;20050;-68
2024/03/06 01:12:33;;;;;;;27.13;20.67;;;7.60;99.90;;;;;;2066827;28;20030;-67
2024/03/06 01:13:33;;;;;;;29.40;22.20;;;7.60;99.90;;;;;;2060596;28;20531;-67
2024/03/06 01:14:34;;;;;;;28.40;21.10;;;7.60;99.90;;;;;;2062592;28;20030;-67
2024/03/06 01:15:35;;;;;;;29.30;17.63;;;7.60;99.90;;;;;;2067779;28;20057;-67
2024/03/06 01:16:35;;;;;;;29.90;23.17;;;7.60;99.90;;;;;;2068474;28;20065;-67
2024/03/06 01:17:35;;;;;;;28.95;20.02;;;7.60;99.90;;;;;;2072372;28;20053;-67
2024/03/06 01:18:36;;;;;;;26.50;21.35;;;7.60;99.90;;;;;;2068792;28;20081;-67
2024/03/06 01:19:37;;;;;;;24.33;19.50;;;7.60;99.90;;;;;;2069729;28;20142;-68
2024/03/06 01:20:37;;;;;;;21.17;18.02;;;7.60;99.90;;;;;;2071413;28;20030;-67
2024/03/06 01:21:38;;;;;;;25.45;17.80;;;7.50;99.90;;;;;;2074999;28;20528;-67
2024/03/06 01:22:39;;;;;;;25.67;19.70;;;7.50;99.90;;;;;;2078844;28;20108;-67
2024/03/06 01:23:40;;;;;;;26.42;20.38;;;7.50;99.90;;;;;;2078140;28;20032;-67
2024/03/06 01:24:40;;;;;;;26.02;18.92;;;7.50;99.90;;;;;;2081593;28;20079;-67
2024/03/06 01:25:43;;;;;;;22.70;19.52;;;7.50;99.90;;;;;;2085379;28;20425;-67
2024/03/06 01:26:44;;;;;;;27.63;21.40;;;7.50;99.90;;;;;;2085907;28;20613;-67
2024/03/06 01:27:45;;;;;;;25.90;19.85;;;7.50;99.90;;;;;;2084191;28;20607;-67
2024/03/06 01:28:48;;;;;;;20.13;17.35;;;7.50;99.90;;;;;;2084209;28;20053;-67
2024/03/06 01:29:48;;;;;;;24.20;18.95;;;7.50;99.90;;;;;;2085197;28;20034;-67
2024/03/06 01:30:49;;;;;;;28.75;20.83;;;7.40;99.90;;;;;;2085269;28;20057;-67
2024/03/06 01:31:49;;;;;;;20.98;16.35;;;7.40;99.90;;;;;;2083912;28;20531;-67
2024/03/06 01:32:53;;;;;;;19.95;16.85;;;7.40;99.90;;;;;;2084011;28;20056;-68
2024/03/06 01:33:54;;;;;;;22.95;18.45;;;7.40;99.90;;;;;;2085091;28;20044;-66
2024/03/06 01:34:54;;;;;;;18.65;16.20;;;7.40;99.90;;;;;;2086027;28;20036;-67
2024/03/06 01:35:55;;;;;;;22.85;18.17;;;7.40;99.90;;;;;;2086754;28;20068;-67
2024/03/06 01:36:55;;;;;;;20.17;16.23;;;7.40;99.90;;;;;;2084882;28;20025;-67
2024/03/06 01:37:56;;;;;;;19.67;16.40;;;7.30;99.90;;;;;;2077890;28;20713;-68
2024/03/06 01:38:56;;;;;;;23.25;15.20;;;7.30;99.90;;;;;;2078459;28;20032;-67
2024/03/06 01:39:57;;;;;;;23.77;19.55;;;7.30;99.90;;;;;;2085704;28;20033;-67
2024/03/06 01:40:58;;;;;;;21.60;17.90;;;7.30;99.90;;;;;;2084521;28;20033;-67
2024/03/06 01:41:58;;;;;;;20.38;16.30;;;7.30;99.90;;;;;;2077861;28;20642;-67
2024/03/06 01:43:01;;;;;;;27.88;20.92;;;7.30;99.90;;;;;;2076278;28;20405;-67
2024/03/06 01:44:03;;;;;;;26.73;19.92;;;7.30;99.90;;;;;;2085311;28;20520;-67
2024/03/06 01:45:04;;;;;;;24.63;18.80;;;7.30;99.90;;;;;;2085967;28;20386;-68
2024/03/06 01:46:05;;;;;;;26.35;20.77;;;7.30;99.90;;;;;;2086739;28;20052;-67
2024/03/06 01:47:09;;;;;;;23.95;20.13;;;7.20;99.90;;;;;;2085064;28;20029;-68
2024/03/06 01:48:09;;;;;;;32.05;25.50;;;7.20;99.90;;;;;;2084758;28;20032;-66
2024/03/06 01:49:15;;;;;;;25.48;21.48;;;7.20;99.90;;;;;;2086163;28;20032;-67
2024/03/06 01:50:15;;;;;;;28.67;21.88;;;7.20;99.90;;;;;;2083318;28;20653;-68
2024/03/06 01:51:16;;;;;;;33.40;26.38;;;7.20;99.90;;;;;;2085429;28;20401;-67
2024/03/06 01:52:18;;;;;;;35.17;26.95;;;7.20;99.90;;;;;;2085070;28;20099;-67
2024/03/06 01:53:19;;;;;;;30.98;25.73;;;7.10;99.90;;;;;;2087823;28;20112;-67
2024/03/06 01:54:20;;;;;;;28.50;22.70;;;7.20;99.90;;;;;;2084323;28;20037;-67
2024/03/06 01:55:21;;;;;;;30.05;23.40;;;7.10;99.90;;;;;;2079637;28;20022;-67
2024/03/06 01:56:21;;;;;;;29.48;21.33;;;7.10;99.90;;;;;;2079510;28;20030;-67
2024/03/06 01:57:22;;;;;;;23.08;18.45;;;7.10;99.90;;;;;;2085769;28;20055;-67
2024/03/06 01:58:24;;;;;;;29.08;21.52;;;7.10;99.90;;;;;;2086271;28;20021;-67
2024/03/06 01:59:25;;;;;;;32.38;22.88;;;7.10;99.90;;;;;;2084259;28;20053;-67
2024/03/06 02:00:26;;;;;;;35.65;26.45;;;7.10;99.90;;;;;;2085816;28;20067;-66
2024/03/06 02:01:27;;;;;;;36.53;27.08;;;7.10;99.90;;;;;;2077772;28;20029;-68
2024/03/06 02:02:27;;;;;;;39.15;28.20;;;7.10;99.90;;;;;;2077528;28;20025;-67
2024/03/06 02:03:31;;;;;;;39.35;28.52;;;7.10;99.90;;;;;;2085440;28;20050;-67
2024/03/06 02:04:32;;;;;;;39.25;27.98;;;7.10;99.90;;;;;;2086244;28;20042;-68
2024/03/06 02:05:32;;;;;;;38.40;29.60;;;7.10;99.90;;;;;;2082587;28;20056;-67
2024/03/06 02:06:33;;;;;;;40.53;29.92;;;7.10;99.90;;;;;;2075773;28;20022;-67
2024/03/06 02:07:36;;;;;;;42.65;31.80;;;7.10;99.90;;;;;;2077366;28;20025;-67
2024/03/06 02:08:36;;;;;;;40.80;30.63;;;7.00;99.90;;;;;;2085517;28;20528;-68
2024/03/06 02:09:41;;;;;;;38.03;26.92;;;7.00;99.90;;;;;;2085045;28;20509;-67
2024/03/06 02:10:47;;;;;;;38.97;27.13;;;7.00;99.90;;;;;;2083795;28;20029;-67
2024/03/06 02:11:50;;;;;;;33.90;24.38;;;7.10;99.90;;;;;;2080044;28;20053;-67
2024/03/06 02:12:52;;;;;;;31.25;24.48;;;7.00;99.90;;;;;;2079947;28;20492;-67
2024/03/06 02:13:53;;;;;;;32.17;25.10;;;7.00;99.90;;;;;;2082900;28;20394;-66
2024/03/06 02:14:56;;;;;;;29.58;22.52;;;7.00;99.90;;;;;;2085508;28;20076;-67
2024/03/06 02:15:58;;;;;;;28.63;22.08;;;7.10;99.90;;;;;;2087304;28;20029;-67
2024/03/06 02:16:58;;;;;;;26.83;20.65;;;7.10;99.90;;;;;;2085172;28;20033;-67
2024/03/06 02:18:05;;;;;;;29.38;23.20;;;7.10;99.90;;;;;;2086027;28;20021;-67
2024/03/06 02:19:11;;;;;;;29.10;22.92;;;7.10;99.90;;;;;;2075235;28;20094;-67
2024/03/06 02:20:12;;;;;;;28.20;23.10;;;7.10;99.90;;;;;;2075547;28;20515;-68
2024/03/06 02:21:15;;;;;;;28.45;22.63;;;7.10;99.90;;;;;;2085757;28;20458;-67
2024/03/06 02:22:16;;;;;;;30.42;22.67;;;7.10;99.90;;;;;;2084121;28;20033;-67
2024/03/06 02:23:21;;;;;;;28.65;22.10;;;7.20;99.90;;;;;;2083359;28;20779;-67
2024/03/06 02:24:22;;;;;;;28.40;22.27;;;7.10;99.90;;;;;;2084688;28;20064;-67
2024/03/06 02:25:23;;;;;;;26.20;20.63;;;7.10;99.90;;;;;;2084994;28;20032;-66
2024/03/06 02:26:23;;;;;;;25.30;21.08;;;7.10;99.90;;;;;;2084415;28;20544;-68
2024/03/06 02:27:24;;;;;;;25.60;20.38;;;7.10;99.90;;;;;;2085231;28;20484;-68
2024/03/06 02:28:25;;;;;;;25.73;20.58;;;7.10;99.90;;;;;;2085315;28;20029;-67
2024/03/06 02:29:25;;;;;;;26.02;21.08;;;7.10;99.90;;;;;;2083501;28;20024;-67
2024/03/06 02:30:26;;;;;;;24.42;19.55;;;7.10;99.90;;;;;;2083890;28;20032;-68
2024/03/06 02:31:27;;;;;;;30.15;23.00;;;7.10;99.90;;;;;;2085987;28;20033;-67
2024/03/06 02:32:27;;;;;;;28.95;19.35;;;7.10;99.90;;;;;;2084637;28;20017;-67
2024/03/06 02:33:28;;;;;;;23.40;20.08;;;7.10;99.90;;;;;;2086344;28;20039;-67
2024/03/06 02:34:30;;;;;;;30.58;23.02;;;7.10;99.90;;;;;;2084469;28;20028;-67
2024/03/06 02:35:30;;;;;;;25.90;21.45;;;7.10;99.90;;;;;;2075946;28;20018;-67
2024/03/06 02:36:32;;;;;;;25.63;19.75;;;7.10;99.90;;;;;;2077847;28;20053;-67
2024/03/06 02:37:35;;;;;;;25.55;20.33;;;7.10;99.90;;;;;;2083320;28;20032;-67
2024/03/06 02:38:36;;;;;;;26.45;20.48;;;7.10;99.90;;;;;;2085939;28;20021;-68
2024/03/06 02:39:37;;;;;;;23.63;19.27;;;7.10;99.90;;;;;;2085005;28;20028;-67
2024/03/06 02:40:37;;;;;;;27.35;21.58;;;7.10;99.90;;;;;;2084605;28;20021;-66
2024/03/06 02:41:38;;;;;;;23.63;18.83;;;7.10;99.90;;;;;;2084728;28;20032;-67
2024/03/06 02:42:38;;;;;;;26.08;21.38;;;7.10;99.90;;;;;;2076920;28;20456;-68
2024/03/06 02:43:42;;;;;;;22.95;18.63;;;7.10;99.90;;;;;;2080329;28;20025;-67
2024/03/06 02:44:43;;;;;;;22.92;18.33;;;7.10;99.90;;;;;;2082156;28;20040;-67
2024/03/06 02:45:44;;;;;;;20.60;16.10;;;7.10;99.90;;;;;;2084018;28;20544;-68
2024/03/06 02:46:48;;;;;;;26.05;18.15;;;7.00;99.90;;;;;;2085950;28;20029;-68
2024/03/06 02:47:49;;;;;;;21.77;17.30;;;7.00;99.90;;;;;;2084557;28;20029;-67
2024/03/06 02:48:50;;;;;;;23.50;17.77;;;7.00;99.90;;;;;;2084924;28;20090;-67
2024/03/06 02:49:51;;;;;;;24.25;19.77;;;7.00;99.90;;;;;;2084380;28;20112;-67
2024/03/06 02:50:51;;;;;;;25.45;19.83;;;7.00;99.90;;;;;;2084673;28;20036;-66
2024/03/06 02:51:52;;;;;;;24.20;19.80;;;7.00;99.90;;;;;;2085914;28;20029;-67
2024/03/06 02:52:53;;;;;;;25.10;19.25;;;7.00;99.90;;;;;;2085630;28;20033;-68
2024/03/06 02:53:54;;;;;;;26.83;19.98;;;7.00;99.90;;;;;;2084010;28;20021;-66
2024/03/06 02:54:55;;;;;;;21.83;18.23;;;7.00;99.90;;;;;;2085568;28;20115;-66
2024/03/06 02:55:55;;;;;;;18.75;16.15;;;6.90;99.90;;;;;;2085136;28;20037;-67
2024/03/06 02:56:56;;;;;;;19.25;16.98;;;7.00;99.90;;;;;;2078120;28;20052;-67
2024/03/06 02:57:56;;;;;;;16.98;14.43;;;6.90;99.90;;;;;;2079168;28;20021;-67
2024/03/06 02:58:57;;;;;;;18.20;15.88;;;6.90;99.90;;;;;;2080141;28;20112;-67
2024/03/06 02:59:58;;;;;;;17.13;15.30;;;6.90;99.90;;;;;;2079698;28;20471;-67
2024/03/06 03:00:59;;;;;;;16.13;14.05;;;6.90;99.90;;;;;;2085453;28;20549;-67
2024/03/06 03:02:00;;;;;;;18.10;14.32;;;6.90;99.90;;;;;;2084659;28;20660;-66
2024/03/06 03:03:00;;;;;;;18.45;16.10;;;6.90;99.90;;;;;;2075896;28;20040;-66
2024/03/06 03:04:01;;;;;;;25.80;17.27;;;6.90;99.90;;;;;;2074102;28;20041;-67
2024/03/06 03:05:02;;;;;;;22.73;19.48;;;6.80;99.90;;;;;;2083282;28;20029;-68
2024/03/06 03:06:04;;;;;;;30.88;21.70;;;6.80;99.90;;;;;;2085066;28;20492;-67
2024/03/06 03:07:05;;;;;;;24.55;20.27;;;6.80;99.90;;;;;;2084164;28;20061;-66
2024/03/06 03:08:09;;;;;;;26.25;19.77;;;6.80;99.90;;;;;;2083476;28;20030;-67
2024/03/06 03:09:11;;;;;;;25.08;19.55;;;6.70;99.90;;;;;;2085764;28;20033;-67
2024/03/06 03:10:12;;;;;;;24.08;20.17;;;6.70;99.90;;;;;;2075903;28;20474;-67
2024/03/06 03:11:12;;;;;;;25.60;18.83;;;6.70;99.90;;;;;;2075980;28;20029;-67
2024/03/06 03:12:13;;;;;;;23.55;17.90;;;6.70;99.90;;;;;;2083516;28;20029;-67
2024/03/06 03:13:14;;;;;;;24.70;17.80;;;6.70;99.90;;;;;;2082885;28;20420;-67
2024/03/06 03:14:18;;;;;;;25.52;20.23;;;6.70;99.90;;;;;;2085942;28;20062;-67
2024/03/06 03:15:18;;;;;;;26.30;20.45;;;6.70;99.90;;;;;;2084529;28;20443;-67
2024/03/06 03:16:20;;;;;;;23.95;20.27;;;6.70;99.90;;;;;;2078097;28;20030;-67
2024/03/06 03:17:20;;;;;;;26.50;20.70;;;6.60;99.90;;;;;;2076678;28;20087;-66
2024/03/06 03:18:21;;;;;;;28.15;20.13;;;6.60;99.90;;;;;;2076733;28;20099;-67
2024/03/06 03:19:21;;;;;;;25.55;19.15;;;6.60;99.90;;;;;;2077473;28;20022;-66
2024/03/06 03:20:22;;;;;;;23.63;19.17;;;6.60;99.90;;;;;;2083705;28;20029;-67
2024/03/06 03:21:22;;;;;;;26.20;20.35;;;6.60;99.90;;;;;;2082270;28;20129;-67
2024/03/06 03:22:23;;;;;;;25.92;17.88;;;6.60;99.90;;;;;;2085021;28;20467;-67
2024/03/06 03:23:23;;;;;;;25.55;21.17;;;6.50;99.90;;;;;;2083065;28;20032;-68
2024/03/06 03:24:27;;;;;;;22.38;17.90;;;6.50;99.90;;;;;;2080365;28;20201;-67
2024/03/06 03:25:27;;;;;;;26.38;20.67;;;6.50;99.90;;;;;;2078367;28;20067;-67
2024/03/06 03:26:28;;;;;;;25.38;18.70;;;6.50;99.90;;;;;;2084040;28;20037;-68
2024/03/06 03:27:28;;;;;;;19.02;16.15;;;6.50;99.90;;;;;;2084902;28;20049;-67
2024/03/06 03:28:29;;;;;;;25.25;20.95;;;6.50;99.90;;;;;;2078430;28;20053;-66
2024/03/06 03:29:30;;;;;;;25.20;20.48;;;6.50;99.90;;;;;;2070867;28;20036;-68
2024/03/06 03:30:32;;;;;;;24.60;18.85;;;6.40;99.90;;;;;;2074570;28;20029;-67
2024/03/06 03:31:36;;;;;;;21.83;18.27;;;6.40;99.90;;;;;;2083677;28;20021;-67
2024/03/06 03:32:37;;;;;;;17.65;15.75;;;6.40;99.90;;;;;;2085128;28;20028;-66
2024/03/06 03:33:41;;;;;;;18.05;15.80;;;6.40;99.90;;;;;;2078850;28;20033;-66
2024/03/06 03:34:44;;;;;;;20.05;15.88;;;6.40;99.90;;;;;;2080333;28;20436;-66
2024/03/06 03:35:45;;;;;;;21.60;18.65;;;6.30;99.90;;;;;;2084751;28;20053;-67
2024/03/06 03:36:46;;;;;;;20.77;17.40;;;6.30;99.90;;;;;;2084823;28;20039;-68
2024/03/06 03:37:46;;;;;;;26.45;20.67;;;6.30;99.90;;;;;;2085521;28;20188;-67
2024/03/06 03:38:47;;;;;;;24.85;20.65;;;6.30;99.90;;;;;;2085868;28;20033;-67
2024/03/06 03:39:47;;;;;;;21.98;18.98;;;6.30;99.90;;;;;;2085131;28;20033;-66
2024/03/06 03:40:53;;;;;;;23.85;18.20;;;6.30;99.90;;;;;;2085869;28;20479;-68
2024/03/06 03:41:54;;;;;;;19.05;16.98;;;6.30;99.90;;;;;;2084364;28;20049;-66
2024/03/06 03:42:55;;;;;;;18.92;15.23;;;6.20;99.90;;;;;;2076717;28;20022;-66
2024/03/06 03:43:55;;;;;;;24.65;19.40;;;6.20;99.90;;;;;;2079203;28;20022;-66
2024/03/06 03:44:56;;;;;;;22.45;19.30;;;6.20;99.90;;;;;;2078543;28;20136;-67
2024/03/06 03:45:59;;;;;;;24.48;18.52;;;6.20;99.90;;;;;;2080825;28;20021;-67
2024/03/06 03:47:00;;;;;;;23.80;18.70;;;6.20;99.90;;;;;;2077557;28;20092;-67
2024/03/06 03:48:04;;;;;;;26.15;20.55;;;6.10;99.90;;;;;;2069535;28;20137;-68
2024/03/06 03:49:05;;;;;;;24.98;20.95;;;6.10;99.90;;;;;;2076328;28;20038;-67
2024/03/06 03:50:06;;;;;;;24.33;20.23;;;6.10;99.90;;;;;;2084925;28;20033;-68
2024/03/06 03:51:09;;;;;;;21.80;17.83;;;6.10;99.90;;;;;;2083455;28;20032;-66
2024/03/06 03:52:09;;;;;;;20.60;17.48;;;6.10;99.90;;;;;;2085136;28;20049;-66
2024/03/06 03:53:10;;;;;;;22.23;18.67;;;6.10;99.90;;;;;;2084355;28;20052;-66
2024/03/06 03:54:10;;;;;;;23.73;19.27;;;6.00;99.90;;;;;;2084997;28;20103;-68
2024/03/06 03:55:11;;;;;;;25.25;19.55;;;6.00;99.90;;;;;;2084340;28;20099;-67
2024/03/06 03:56:12;;;;;;;25.25;21.88;;;6.00;99.90;;;;;;2084802;28;20021;-67
2024/03/06 03:57:14;;;;;;;29.70;23.98;;;6.00;99.90;;;;;;2085524;28;20112;-67
2024/03/06 03:58:14;;;;;;;29.85;23.67;;;6.00;99.90;;;;;;2085258;28;20027;-68
2024/03/06 03:59:18;;;;;;;27.83;23.17;;;6.00;99.90;;;;;;2084519;28;20021;-67
2024/03/06 04:00:19;;;;;;;27.80;22.13;;;5.90;99.90;;;;;;2083272;28;20386;-67
2024/03/06 04:01:19;;;;;;;29.63;22.40;;;5.90;99.90;;;;;;2083200;28;20036;-67
2024/03/06 04:02:20;;;;;;;24.88;21.05;;;5.90;99.90;;;;;;2084755;28;20035;-67
2024/03/06 04:03:21;;;;;;;28.08;22.08;;;5.90;99.90;;;;;;2084849;28;20033;-66
2024/03/06 04:04:22;;;;;;;25.73;21.00;;;5.90;99.90;;;;;;2076370;28;20526;-67
2024/03/06 04:05:23;;;;;;;25.08;21.45;;;5.80;99.90;;;;;;2075722;28;20430;-66
2024/03/06 04:06:26;;;;;;;30.90;23.58;;;5.80;99.90;;;;;;2082481;28;20030;-67
2024/03/06 04:07:27;;;;;;;24.17;20.55;;;5.90;99.90;;;;;;2083921;28;20025;-66
2024/03/06 04:08:28;;;;;;;27.55;21.15;;;5.80;99.90;;;;;;2083027;28;20053;-67
2024/03/06 04:09:28;;;;;;;27.58;22.00;;;5.80;99.90;;;;;;2082191;28;20040;-67
2024/03/06 04:10:29;;;;;;;30.15;22.52;;;5.80;99.90;;;;;;2084419;28;20068;-67
2024/03/06 04:11:29;;;;;;;31.23;23.90;;;5.80;99.90;;;;;;2082112;28;20101;-67
2024/03/06 04:12:30;;;;;;;22.67;19.73;;;5.80;99.90;;;;;;2084007;28;20034;-68
2024/03/06 04:13:36;;;;;;;26.35;21.05;;;5.80;99.90;;;;;;2077348;28;20021;-67
2024/03/06 04:14:36;;;;;;;24.98;20.08;;;5.80;99.90;;;;;;2077123;28;20026;-67
2024/03/06 04:15:37;;;;;;;25.52;20.23;;;5.80;99.90;;;;;;2084991;28;20029;-67
2024/03/06 04:16:38;;;;;;;29.70;23.00;;;5.80;99.90;;;;;;2085166;28;20461;-68
2024/03/06 04:17:40;;;;;;;27.48;22.23;;;5.70;99.90;;;;;;2085841;28;20029;-67
2024/03/06 04:18:41;;;;;;;25.63;21.58;;;5.70;99.90;;;;;;2083898;28;20033;-67
2024/03/06 04:19:41;;;;;;;24.30;20.48;;;5.70;99.90;;;;;;2080694;28;20044;-67
2024/03/06 04:20:42;;;;;;;23.20;18.25;;;5.70;99.90;;;;;;2075187;28;20394;-67
2024/03/06 04:21:43;;;;;;;25.83;19.35;;;5.70;99.90;;;;;;2077086;28;20064;-66
2024/03/06 04:22:46;;;;;;;26.08;21.35;;;5.70;99.90;;;;;;2080093;28;20064;-67
2024/03/06 04:23:46;;;;;;;28.45;22.27;;;5.70;99.90;;;;;;2087306;28;20417;-68
2024/03/06 04:24:47;;;;;;;25.38;20.23;;;5.70;99.90;;;;;;2086595;28;20108;-67
2024/03/06 04:25:47;;;;;;;24.15;19.95;;;5.70;99.90;;;;;;2084607;28;20029;-67
2024/03/06 04:26:48;;;;;;;26.42;20.83;;;5.70;99.90;;;;;;2085866;28;20064;-67
2024/03/06 04:27:51;;;;;;;27.63;22.52;;;5.70;99.90;;;;;;2085007;28;20033;-67
2024/03/06 04:28:52;;;;;;;25.75;21.40;;;5.70;99.90;;;;;;2084500;28;20025;-67
2024/03/06 04:29:52;;;;;;;27.30;21.83;;;5.70;99.90;;;;;;2086275;28;20144;-67
2024/03/06 04:30:54;;;;;;;28.30;21.52;;;5.70;99.90;;;;;;2083905;28;20036;-66
2024/03/06 04:31:54;;;;;;;25.88;20.58;;;5.70;99.90;;;;;;2083990;28;20033;-67
2024/03/06 04:32:55;;;;;;;24.65;19.33;;;5.70;99.90;;;;;;2085496;28;20110;-67
2024/03/06 04:33:55;;;;;;;25.38;20.10;;;5.70;99.90;;;;;;2086464;28;20079;-67
2024/03/06 04:34:56;;;;;;;26.17;20.02;;;5.70;99.90;;;;;;2085075;28;20025;-67
2024/03/06 04:35:59;;;;;;;24.38;20.77;;;5.70;99.90;;;;;;2085980;28;20543;-67
2024/03/06 04:37:01;;;;;;;25.70;19.58;;;5.70;99.90;;;;;;2084872;28;20374;-67
2024/03/06 04:38:03;;;;;;;23.60;19.75;;;5.70;99.90;;;;;;2077997;28;20029;-67
2024/03/06 04:39:07;;;;;;;23.80;19.85;;;5.70;99.90;;;;;;2076242;28;20463;-68
2024/03/06 04:40:08;;;;;;;26.13;21.55;;;5.70;99.90;;;;;;2086370;28;20490;-67
2024/03/06 04:41:10;;;;;;;28.90;22.00;;;5.70;99.90;;;;;;2085551;28;20036;-66
2024/03/06 04:42:11;;;;;;;26.60;22.17;;;5.70;99.90;;;;;;2085811;28;20043;-67
2024/03/06 04:43:11;;;;;;;22.85;19.73;;;5.70;99.90;;;;;;2087388;28;20063;-67
2024/03/06 04:44:12;;;;;;;24.08;18.80;;;5.70;99.90;;;;;;2085848;28;20108;-67
2024/03/06 04:45:16;;;;;;;24.15;19.58;;;5.70;99.90;;;;;;2086441;28;20374;-67
2024/03/06 04:46:16;;;;;;;23.67;19.55;;;5.70;99.90;;;;;;2086004;28;20053;-67
2024/03/06 04:47:17;;;;;;;22.90;18.85;;;5.70;99.90;;;;;;2086039;28;20036;-67
2024/03/06 04:48:17;;;;;;;23.73;18.60;;;5.70;99.90;;;;;;2085622;28;20057;-67
2024/03/06 04:49:18;;;;;;;25.80;18.75;;;5.70;99.90;;;;;;2085959;28;20148;-68
2024/03/06 04:50:18;;;;;;;24.17;19.60;;;5.70;99.90;;;;;;2087125;28;20093;-67
2024/03/06 04:51:19;;;;;;;24.92;20.50;;;5.70;99.90;;;;;;2085059;28;20025;-67
2024/03/06 04:52:20;;;;;;;24.13;19.35;;;5.70;99.90;;;;;;2085943;28;20022;-67
2024/03/06 04:53:20;;;;;;;26.33;20.02;;;5.70;99.90;;;;;;2085682;28;20029;-67
2024/03/06 04:54:21;;;;;;;21.88;17.65;;;5.70;99.90;;;;;;2086454;28;20074;-67
2024/03/06 04:55:22;;;;;;;27.73;21.27;;;5.70;99.90;;;;;;2078420;28;20032;-67
2024/03/06 04:56:23;;;;;;;24.60;19.42;;;5.70;99.90;;;;;;2078431;28;20029;-67
2024/03/06 04:57:23;;;;;;;26.27;20.80;;;5.70;99.90;;;;;;2084953;28;20079;-67
2024/03/06 04:58:24;;;;;;;25.17;20.08;;;5.70;99.90;;;;;;2085086;28;20048;-68
2024/03/06 04:59:26;;;;;;;22.23;18.55;;;5.70;99.90;;;;;;2078825;28;20462;-67
2024/03/06 05:00:29;;;;;;;20.30;17.23;;;5.70;99.90;;;;;;2079012;28;20026;-66
2024/03/06 05:01:30;;;;;;;25.73;20.50;;;5.70;99.90;;;;;;2087231;28;20054;-66
2024/03/06 05:02:36;;;;;;;22.88;19.35;;;5.80;99.90;;;;;;2082849;28;20025;-66
2024/03/06 05:03:39;;;;;;;21.58;18.55;;;5.70;99.90;;;;;;2086514;28;20037;-67
2024/03/06 05:04:40;;;;;;;25.80;21.35;;;5.70;99.90;;;;;;2086375;28;20063;-66
2024/03/06 05:05:40;;;;;;;26.88;21.98;;;5.70;99.90;;;;;;2084816;28;20029;-67
2024/03/06 05:06:41;;;;;;;26.75;20.60;;;5.70;99.90;;;;;;2085810;28;20029;-67
2024/03/06 05:07:41;;;;;;;26.60;21.48;;;5.80;99.90;;;;;;2084815;28;20084;-67
2024/03/06 05:08:42;;;;;;;29.63;23.60;;;5.80;99.90;;;;;;2082403;28;20067;-67
2024/03/06 05:09:43;;;;;;;24.30;20.00;;;5.80;99.90;;;;;;2081142;28;20254;-67
2024/03/06 05:10:43;;;;;;;27.73;22.83;;;5.80;99.90;;;;;;2085883;28;20954;-68
2024/03/06 05:11:44;;;;;;;24.15;19.85;;;5.80;99.90;;;;;;2084814;28;20029;-67
2024/03/06 05:12:44;;;;;;;26.75;21.35;;;5.80;99.90;;;;;;2085833;28;20063;-67
2024/03/06 05:13:45;;;;;;;26.20;21.67;;;5.80;99.90;;;;;;2085185;28;20029;-67
2024/03/06 05:14:45;;;;;;;23.48;19.17;;;5.80;99.90;;;;;;2084634;28;20036;-67